Time;durP1;ratioP1;P1;durP2;ratioP2;P2;SDS_P1;SDS_P2;PMS_P1;PMS_P2;Temp;Humidity;BMP_temperature;BMP_pressure;BME280_temperature;BME280_humidity;BME280_pressure;Samples;Min_cycle;Max_cycle;Signal;HPM_P1;HPM_P2
2021/06/02 00:00:26;;;;;;;14.43;8.90;;;24.10;63.40;;;;;;4952206;28;20458;-75
2021/06/02 00:02:54;;;;;;;15.07;9.05;;;24.00;63.60;;;;;;4947574;28;20469;-76
2021/06/02 00:05:22;;;;;;;14.68;9.32;;;23.90;63.80;;;;;;4952574;28;20945;-76
2021/06/02 00:07:50;;;;;;;15.88;9.23;;;23.90;64.10;;;;;;4948835;28;20458;-76
2021/06/02 00:10:23;;;;;;;16.50;9.10;;;23.90;64.30;;;;;;4951519;28;20441;-76
2021/06/02 00:12:49;;;;;;;14.88;9.07;;;23.80;64.30;;;;;;4950047;28;20488;-75
2021/06/02 00:15:18;;;;;;;14.43;8.80;;;23.80;64.50;;;;;;4951046;28;20437;-75
2021/06/02 00:17:45;;;;;;;13.20;8.95;;;23.80;64.80;;;;;;4933182;29;20433;-76
2021/06/02 00:20:12;;;;;;;16.23;9.70;;;23.80;64.90;;;;;;4950721;28;20921;-75
2021/06/02 00:22:38;;;;;;;15.37;9.37;;;23.80;65.70;;;;;;4949551;28;20445;-77
2021/06/02 00:25:08;;;;;;;15.55;9.15;;;23.80;65.10;;;;;;4952601;28;20445;-75
2021/06/02 00:27:36;;;;;;;18.52;9.18;;;23.70;65.10;;;;;;4949068;28;20449;-76
2021/06/02 00:30:06;;;;;;;14.23;9.37;;;23.70;65.30;;;;;;4948567;28;20636;-74
2021/06/02 00:32:33;;;;;;;12.63;9.33;;;23.70;65.30;;;;;;4949910;28;20425;-75
2021/06/02 00:35:01;;;;;;;15.30;9.00;;;23.70;65.30;;;;;;4932979;29;20441;-74
2021/06/02 00:37:29;;;;;;;14.10;9.10;;;23.70;65.30;;;;;;4951615;28;20428;-76
2021/06/02 00:39:57;;;;;;;14.38;9.00;;;23.60;65.50;;;;;;4933128;29;20560;-76
2021/06/02 00:42:29;;;;;;;14.57;9.60;;;23.60;65.80;;;;;;4951735;28;20996;-76
2021/06/02 00:44:55;;;;;;;15.05;9.60;;;23.60;65.90;;;;;;4934357;29;20449;-77
2021/06/02 00:47:24;;;;;;;14.32;9.45;;;23.50;66.00;;;;;;4948349;28;21002;-75
2021/06/02 00:49:51;;;;;;;16.67;10.32;;;23.50;66.10;;;;;;4951816;28;20425;-76
2021/06/02 00:52:17;;;;;;;16.58;10.10;;;23.40;66.40;;;;;;4951919;28;20910;-77
2021/06/02 00:54:44;;;;;;;14.65;10.00;;;23.40;66.40;;;;;;4949578;28;20430;-76
2021/06/02 00:57:14;;;;;;;14.13;10.15;;;23.30;66.30;;;;;;4952653;28;20429;-76
2021/06/02 00:59:43;;;;;;;14.98;9.70;;;23.30;66.40;;;;;;4949895;28;20441;-75
2021/06/02 01:02:12;;;;;;;13.52;10.18;;;23.20;66.30;;;;;;4951020;28;20910;-76
2021/06/02 01:04:39;;;;;;;14.32;9.90;;;23.20;66.40;;;;;;4948742;28;20437;-77
2021/06/02 01:07:09;;;;;;;15.50;10.23;;;23.20;67.50;;;;;;4950806;28;21059;-75
2021/06/02 01:09:36;;;;;;;14.93;9.90;;;23.10;66.60;;;;;;4950766;28;20925;-75
2021/06/02 01:12:03;;;;;;;13.95;10.18;;;23.10;66.60;;;;;;4932341;29;20460;-75
2021/06/02 01:14:31;;;;;;;19.03;10.30;;;23.00;66.90;;;;;;4949257;28;20795;-76
2021/06/02 01:16:59;;;;;;;14.63;10.10;;;23.00;67.10;;;;;;4930785;29;20430;-75
2021/06/02 01:19:25;;;;;;;14.52;10.13;;;22.90;67.10;;;;;;4948945;28;20464;-76
2021/06/02 01:21:55;;;;;;;15.38;9.77;;;22.80;67.20;;;;;;4948218;28;20441;-76
2021/06/02 01:24:21;;;;;;;13.73;9.27;;;22.80;67.60;;;;;;4948783;28;20441;-78
2021/06/02 01:26:53;;;;;;;14.65;10.15;;;22.80;67.60;;;;;;4932853;29;20772;-75
2021/06/02 01:29:19;;;;;;;13.90;9.80;;;22.80;67.70;;;;;;4946336;28;20886;-75
2021/06/02 01:32:07;;;;;;;17.77;9.80;;;22.70;67.70;;;;;;4947340;28;20437;-78
2021/06/02 01:35:03;;;;;;;13.50;9.10;;;22.70;68.00;;;;;;4948151;28;20788;-74
2021/06/02 01:37:51;;;;;;;14.20;9.83;;;22.60;68.10;;;;;;4933379;28;20872;-76
2021/06/02 01:40:54;;;;;;;14.57;9.60;;;22.60;68.30;;;;;;4950722;28;20796;-77
2021/06/02 01:43:37;;;;;;;13.67;9.70;;;22.60;68.50;;;;;;4947523;28;20456;-77
2021/06/02 01:46:30;;;;;;;12.82;9.90;;;22.50;68.60;;;;;;4950283;28;20472;-76
2021/06/02 01:49:08;;;;;;;13.20;10.38;;;22.40;68.80;;;;;;4949420;28;20898;-74
2021/06/02 01:52:29;;;;;;;17.35;10.15;;;22.40;69.10;;;;;;4948919;28;20439;-76
2021/06/02 01:55:19;;;;;;;17.00;9.87;;;22.40;70.00;;;;;;4883377;28;20445;-74
2021/06/02 01:58:31;;;;;;;14.43;9.70;;;22.40;69.20;;;;;;4895558;28;20441;-78
2021/06/02 02:01:12;;;;;;;15.07;10.53;;;22.30;69.30;;;;;;4930272;29;20752;-76
2021/06/02 02:04:06;;;;;;;13.55;10.43;;;22.30;69.40;;;;;;4948883;28;20417;-74
2021/06/02 02:07:21;;;;;;;16.02;10.18;;;22.30;69.60;;;;;;4931652;28;20544;-76
2021/06/02 02:10:11;;;;;;;13.40;10.35;;;22.30;69.60;;;;;;4952322;28;20941;-76
2021/06/02 02:12:59;;;;;;;18.73;10.40;;;22.30;69.70;;;;;;4948330;28;20445;-76
2021/06/02 02:15:33;;;;;;;14.23;9.90;;;22.30;69.70;;;;;;4948677;28;20447;-76
2021/06/02 02:18:21;;;;;;;14.17;10.50;;;22.30;69.90;;;;;;4949637;28;20821;-77
2021/06/02 02:20:53;;;;;;;15.35;10.23;;;22.30;69.80;;;;;;4948947;28;20929;-76
2021/06/02 02:23:30;;;;;;;12.63;10.30;;;22.30;70.00;;;;;;4948491;28;20910;-77
2021/06/02 02:26:05;;;;;;;15.02;10.50;;;22.20;70.00;;;;;;4935716;28;20441;-76
2021/06/02 02:28:49;;;;;;;16.33;11.30;;;22.20;70.00;;;;;;4948892;28;20441;-77
2021/06/02 02:31:43;;;;;;;16.60;11.00;;;22.20;70.10;;;;;;4949095;28;20468;-76
2021/06/02 02:34:24;;;;;;;14.85;10.75;;;22.20;70.00;;;;;;4949661;28;20465;-77
2021/06/02 02:36:58;;;;;;;19.70;11.32;;;22.20;70.10;;;;;;4948328;28;20430;-76
2021/06/02 02:39:30;;;;;;;17.45;10.95;;;22.20;70.20;;;;;;4945601;28;20489;-76
2021/06/02 02:42:06;;;;;;;15.00;11.30;;;22.20;70.40;;;;;;4948521;28;20429;-76
2021/06/02 02:44:55;;;;;;;16.83;11.30;;;22.20;70.20;;;;;;4953889;28;20851;-76
2021/06/02 02:47:30;;;;;;;17.27;11.47;;;22.20;70.20;;;;;;4933590;28;20426;-76
2021/06/02 02:50:03;;;;;;;17.17;11.00;;;22.10;70.20;;;;;;4954303;28;20957;-75
2021/06/02 02:52:49;;;;;;;16.20;11.43;;;22.10;70.10;;;;;;4954078;28;20435;-76
2021/06/02 02:55:19;;;;;;;17.00;11.98;;;22.10;69.90;;;;;;4953918;28;20941;-76
2021/06/02 02:57:54;;;;;;;18.80;12.00;;;22.00;69.70;;;;;;4952390;28;20492;-75
2021/06/02 03:00:25;;;;;;;17.02;11.35;;;22.00;70.30;;;;;;4932884;28;20446;-76
2021/06/02 03:02:58;;;;;;;16.92;11.90;;;22.00;70.60;;;;;;4950116;28;21222;-76
2021/06/02 03:05:26;;;;;;;18.48;12.15;;;21.90;70.70;;;;;;4954263;28;20433;-76
2021/06/02 03:08:00;;;;;;;16.27;12.10;;;22.00;70.90;;;;;;4950640;28;20437;-75
2021/06/02 03:10:30;;;;;;;16.58;12.07;;;21.90;70.80;;;;;;4951751;28;20433;-77
2021/06/02 03:13:05;;;;;;;17.05;12.40;;;21.90;70.60;;;;;;4935102;28;20457;-75
2021/06/02 03:15:41;;;;;;;19.30;12.35;;;21.90;71.40;;;;;;4950845;28;20461;-75
2021/06/02 03:18:18;;;;;;;18.60;12.25;;;21.90;70.70;;;;;;4952600;28;20494;-76
2021/06/02 03:20:51;;;;;;;18.75;12.18;;;21.80;70.90;;;;;;4934669;29;20440;-75
2021/06/02 03:23:29;;;;;;;17.30;11.77;;;21.80;71.30;;;;;;4951338;28;20441;-76
2021/06/02 03:26:03;;;;;;;17.35;12.00;;;21.70;71.40;;;;;;4933673;28;20434;-76
2021/06/02 03:28:51;;;;;;;17.27;12.65;;;21.70;71.90;;;;;;4932944;29;20469;-76
2021/06/02 03:31:26;;;;;;;19.85;12.30;;;21.70;72.10;;;;;;4952634;28;20465;-75
2021/06/02 03:34:20;;;;;;;18.17;12.10;;;21.60;72.30;;;;;;4952486;28;20527;-76
2021/06/02 03:37:04;;;;;;;17.48;12.13;;;21.60;72.50;;;;;;4951176;28;20429;-76
2021/06/02 03:39:48;;;;;;;17.50;11.93;;;21.60;72.50;;;;;;4951014;28;20823;-75
2021/06/02 03:42:27;;;;;;;16.55;11.45;;;21.60;72.70;;;;;;4952830;28;20444;-77
2021/06/02 03:45:04;;;;;;;18.35;12.50;;;21.50;73.70;;;;;;4951944;28;20910;-76
2021/06/02 03:47:45;;;;;;;17.92;11.70;;;21.50;73.10;;;;;;4949040;28;20498;-75
2021/06/02 03:50:17;;;;;;;15.32;11.93;;;21.50;73.40;;;;;;4949167;28;20434;-75
2021/06/02 03:53:06;;;;;;;16.65;11.82;;;21.40;73.80;;;;;;4950856;28;20453;-75
2021/06/02 03:55:36;;;;;;;17.77;11.85;;;21.40;74.20;;;;;;4950520;28;20452;-76
2021/06/02 03:58:14;;;;;;;18.27;11.97;;;21.30;74.70;;;;;;4946723;28;20929;-75
2021/06/02 04:00:48;;;;;;;16.33;11.98;;;21.30;75.20;;;;;;4951039;28;20468;-75
2021/06/02 04:03:22;;;;;;;18.48;12.40;;;21.30;75.50;;;;;;4948443;28;20914;-76
2021/06/02 04:05:53;;;;;;;16.77;12.73;;;21.20;75.70;;;;;;4950820;28;20432;-75
2021/06/02 04:08:33;;;;;;;14.80;12.13;;;21.20;76.20;;;;;;4950681;28;20914;-78
2021/06/02 04:11:17;;;;;;;17.52;12.15;;;21.10;76.30;;;;;;4932788;28;20443;-74
2021/06/02 04:13:54;;;;;;;17.38;12.73;;;21.20;76.40;;;;;;4949057;28;20437;-74
2021/06/02 04:16:23;;;;;;;19.10;13.00;;;21.10;76.40;;;;;;4950729;28;20468;-77
2021/06/02 04:18:51;;;;;;;17.13;12.80;;;21.10;76.40;;;;;;4932403;28;20437;-77
2021/06/02 04:21:20;;;;;;;17.60;13.00;;;21.10;76.50;;;;;;4951349;28;20444;-77
2021/06/02 04:23:47;;;;;;;16.05;12.77;;;21.10;76.40;;;;;;4950165;28;20794;-75
2021/06/02 04:26:14;;;;;;;18.80;12.80;;;21.10;76.30;;;;;;4948558;28;21146;-77
2021/06/02 04:28:42;;;;;;;17.05;12.93;;;21.10;76.20;;;;;;4933582;29;20442;-76
2021/06/02 04:31:10;;;;;;;18.20;12.85;;;21.10;76.20;;;;;;4951904;28;20437;-76
2021/06/02 04:33:40;;;;;;;18.85;13.60;;;21.10;76.20;;;;;;4948785;28;20520;-75
2021/06/02 04:36:08;;;;;;;19.00;13.43;;;21.20;76.20;;;;;;4947150;28;20434;-75
2021/06/02 04:38:34;;;;;;;19.25;13.43;;;21.20;76.20;;;;;;4946957;28;20890;-77
2021/06/02 04:41:03;;;;;;;20.13;13.60;;;21.30;76.10;;;;;;4949186;28;20446;-76
2021/06/02 04:43:31;;;;;;;21.60;13.27;;;21.30;76.00;;;;;;4948810;28;20492;-76
2021/06/02 04:46:00;;;;;;;19.30;13.40;;;21.30;76.10;;;;;;4947951;28;20445;-76
2021/06/02 04:48:27;;;;;;;21.42;13.55;;;21.30;76.10;;;;;;4947480;28;20449;-74
2021/06/02 04:51:08;;;;;;;21.50;13.80;;;21.30;76.00;;;;;;4946559;28;20435;-75
2021/06/02 04:54:14;;;;;;;19.40;13.57;;;21.30;75.90;;;;;;4946326;28;20437;-74
2021/06/02 04:57:24;;;;;;;19.92;13.38;;;21.30;76.00;;;;;;4946369;28;20460;-75
2021/06/02 05:00:22;;;;;;;19.52;14.00;;;21.40;76.00;;;;;;4947130;28;20445;-77
2021/06/02 05:03:37;;;;;;;19.98;13.57;;;21.30;76.00;;;;;;4932383;28;20442;-75
2021/06/02 05:06:37;;;;;;;18.50;13.55;;;21.30;76.20;;;;;;4947396;28;21008;-74
2021/06/02 05:09:29;;;;;;;21.85;13.55;;;21.30;76.50;;;;;;4945329;28;20429;-75
2021/06/02 05:12:26;;;;;;;21.90;14.50;;;21.30;76.60;;;;;;4931540;29;20960;-75
2021/06/02 05:15:24;;;;;;;19.60;13.70;;;21.40;76.90;;;;;;4947099;28;20444;-75
2021/06/02 05:18:27;;;;;;;19.85;14.52;;;21.40;77.10;;;;;;4949814;28;20949;-75
2021/06/02 05:24:37;;;;;;;23.02;14.70;;;21.40;77.10;;;;;;4948740;28;20417;-76
2021/06/02 05:27:46;;;;;;;22.73;14.93;;;21.40;77.30;;;;;;4949671;28;20783;-75
2021/06/02 05:30:39;;;;;;;23.40;15.20;;;21.40;77.30;;;;;;4947824;28;20458;-76
2021/06/02 05:33:39;;;;;;;25.70;15.38;;;21.40;77.60;;;;;;4927979;28;20445;-75
2021/06/02 05:36:54;;;;;;;22.77;14.98;;;21.40;78.20;;;;;;4949025;28;20517;-79
2021/06/02 05:39:46;;;;;;;22.95;15.18;;;21.40;78.60;;;;;;4951409;28;20441;-73
2021/06/02 05:42:21;;;;;;;25.35;15.93;;;21.40;78.70;;;;;;4933552;28;20433;-77
2021/06/02 05:45:16;;;;;;;23.60;15.00;;;21.40;78.60;;;;;;4933953;29;20457;-76
2021/06/02 05:48:13;;;;;;;24.00;14.70;;;21.40;78.60;;;;;;4951914;28;20437;-74
2021/06/02 05:51:13;;;;;;;22.52;15.25;;;21.50;78.80;;;;;;4933787;29;20487;-74
2021/06/02 05:54:17;;;;;;;24.77;14.48;;;21.50;78.30;;;;;;4935886;28;20451;-75
2021/06/02 05:57:22;;;;;;;26.92;14.65;;;21.50;78.50;;;;;;4931325;29;20440;-75
2021/06/02 06:00:27;;;;;;;21.55;14.10;;;21.50;78.20;;;;;;4947889;28;20502;-73
2021/06/02 06:03:42;;;;;;;21.70;13.70;;;21.60;78.10;;;;;;4951018;28;20430;-74
2021/06/02 06:06:23;;;;;;;20.60;13.13;;;21.60;78.10;;;;;;4934697;29;20938;-76
2021/06/02 06:09:29;;;;;;;20.95;13.48;;;21.60;77.80;;;;;;4933305;28;20915;-75
2021/06/02 06:12:15;;;;;;;23.70;13.65;;;21.60;77.20;;;;;;4942484;28;20445;-75
2021/06/02 06:15:25;;;;;;;21.37;14.10;;;21.70;77.20;;;;;;4948166;28;20440;-73
2021/06/02 06:18:22;;;;;;;21.17;13.82;;;21.70;77.90;;;;;;4946410;28;20500;-73
2021/06/02 06:21:22;;;;;;;23.10;13.75;;;21.70;76.70;;;;;;4924812;28;20819;-74
2021/06/02 06:23:54;;;;;;;23.55;14.57;;;21.80;76.70;;;;;;4951585;28;20438;-75
2021/06/02 06:26:30;;;;;;;23.75;13.45;;;21.80;77.80;;;;;;4951159;28;20520;-75
2021/06/02 06:29:06;;;;;;;22.88;14.18;;;21.80;76.50;;;;;;4952624;28;20421;-75
2021/06/02 06:31:38;;;;;;;20.70;13.73;;;21.80;76.40;;;;;;4953606;28;20441;-76
2021/06/02 06:34:09;;;;;;;20.05;13.57;;;21.80;78.20;;;;;;4950057;28;20441;-75
2021/06/02 06:36:38;;;;;;;26.65;14.95;;;21.80;76.70;;;;;;4937031;28;20507;-75
2021/06/02 06:39:21;;;;;;;23.67;14.95;;;21.90;77.60;;;;;;4951982;28;20488;-74
2021/06/02 06:41:49;;;;;;;26.75;15.00;;;21.90;77.50;;;;;;4936749;29;20448;-74
2021/06/02 06:44:16;;;;;;;23.88;13.98;;;21.90;77.40;;;;;;4954765;28;20807;-74
2021/06/02 06:46:46;;;;;;;22.30;13.67;;;21.90;78.10;;;;;;4952132;28;20436;-74
2021/06/02 06:49:15;;;;;;;22.80;13.77;;;21.90;77.60;;;;;;4936600;29;20421;-73
2021/06/02 06:51:52;;;;;;;21.97;14.40;;;21.90;77.70;;;;;;4951170;28;20433;-73
2021/06/02 06:54:20;;;;;;;18.90;13.55;;;21.90;77.70;;;;;;4952629;28;20421;-76
2021/06/02 06:56:47;;;;;;;22.33;12.27;;;21.90;77.60;;;;;;4952714;28;20437;-75
2021/06/02 06:59:15;;;;;;;19.92;12.73;;;22.00;76.50;;;;;;4953296;28;20425;-74
2021/06/02 07:01:42;;;;;;;20.67;12.40;;;22.00;76.60;;;;;;4952813;28;20440;-75
2021/06/02 07:04:09;;;;;;;16.73;11.50;;;22.10;77.10;;;;;;4955861;28;20954;-75
2021/06/02 07:06:37;;;;;;;18.70;11.65;;;22.10;75.00;;;;;;4935446;28;20448;-75
2021/06/02 07:09:06;;;;;;;20.13;11.77;;;22.10;74.20;;;;;;4950542;28;20555;-76
2021/06/02 07:11:39;;;;;;;18.00;11.50;;;22.10;74.40;;;;;;4946449;28;20451;-74
2021/06/02 07:14:06;;;;;;;19.30;11.50;;;22.20;73.90;;;;;;4948377;28;20506;-75
2021/06/02 07:16:36;;;;;;;20.55;11.20;;;22.20;73.60;;;;;;4951038;28;20429;-74
2021/06/02 07:19:03;;;;;;;18.42;10.45;;;22.20;72.80;;;;;;4953320;28;20437;-75
2021/06/02 07:21:30;;;;;;;19.27;10.32;;;22.20;73.10;;;;;;4952012;28;20441;-76
2021/06/02 07:23:57;;;;;;;13.38;9.98;;;22.30;73.50;;;;;;4951505;28;20534;-75
2021/06/02 07:26:25;;;;;;;20.00;11.23;;;22.30;73.40;;;;;;4952474;28;20425;-75
2021/06/02 07:28:51;;;;;;;20.75;13.05;;;22.40;74.20;;;;;;4950620;28;20441;-74
2021/06/02 07:31:18;;;;;;;21.98;13.70;;;22.40;75.90;;;;;;4947117;28;20432;-75
2021/06/02 07:33:44;;;;;;;23.52;13.63;;;22.40;76.30;;;;;;4951497;28;20212;-73
2021/06/02 07:36:11;;;;;;;23.60;14.07;;;22.10;76.80;;;;;;4953954;28;20221;-74
2021/06/02 07:38:39;;;;;;;22.90;13.27;;;21.90;77.30;;;;;;4953069;28;20605;-75
2021/06/02 07:41:05;;;;;;;21.75;13.05;;;21.80;77.60;;;;;;4948369;28;20210;-74
2021/06/02 07:43:33;;;;;;;22.05;13.90;;;21.70;77.90;;;;;;4953651;28;20576;-74
2021/06/02 07:46:00;;;;;;;24.42;13.32;;;21.60;78.20;;;;;;4946256;28;20210;-76
2021/06/02 07:48:27;;;;;;;20.05;13.80;;;21.50;78.30;;;;;;4953568;28;21612;-75
2021/06/02 07:50:53;;;;;;;18.08;13.35;;;21.50;78.60;;;;;;4951938;28;20273;-73
2021/06/02 07:53:19;;;;;;;21.00;13.40;;;21.50;78.90;;;;;;4950150;28;20218;-72
2021/06/02 07:55:46;;;;;;;23.05;13.90;;;21.50;79.00;;;;;;4951155;28;20206;-75
2021/06/02 07:58:12;;;;;;;21.10;13.50;;;21.50;79.10;;;;;;4934492;29;20226;-75
2021/06/02 08:00:40;;;;;;;26.33;13.40;;;21.50;79.20;;;;;;4950824;28;20202;-73
2021/06/02 08:03:07;;;;;;;34.10;14.20;;;21.50;79.20;;;;;;4950655;28;20617;-74
2021/06/02 08:05:33;;;;;;;21.98;13.68;;;21.50;79.20;;;;;;4937867;28;20301;-75
2021/06/02 08:08:00;;;;;;;18.38;12.85;;;21.60;79.20;;;;;;4956181;28;20260;-72
2021/06/02 08:10:26;;;;;;;23.33;13.00;;;21.50;79.10;;;;;;4950248;28;20202;-73
2021/06/02 08:12:53;;;;;;;23.80;12.98;;;21.60;79.20;;;;;;4949100;28;20217;-73
2021/06/02 08:15:19;;;;;;;24.60;12.35;;;21.60;79.20;;;;;;4946682;28;20229;-74
2021/06/02 08:17:48;;;;;;;19.60;11.57;;;21.60;79.20;;;;;;4949796;28;20738;-73
2021/06/02 08:20:16;;;;;;;19.45;10.93;;;21.60;79.20;;;;;;4951785;28;20202;-73
2021/06/02 08:22:43;;;;;;;19.60;11.68;;;21.70;79.20;;;;;;4946517;28;20198;-72
2021/06/02 08:25:11;;;;;;;23.58;12.05;;;21.70;79.40;;;;;;4949917;28;20201;-73
2021/06/02 08:27:38;;;;;;;24.83;12.35;;;21.70;79.30;;;;;;4952245;28;20226;-74
2021/06/02 08:30:08;;;;;;;18.50;12.10;;;21.80;79.30;;;;;;4946044;28;20264;-71
2021/06/02 08:32:35;;;;;;;20.35;11.93;;;21.80;79.20;;;;;;4947819;28;20202;-73
2021/06/02 08:35:04;;;;;;;18.02;11.57;;;21.90;79.10;;;;;;4948140;28;20210;-77
2021/06/02 08:37:30;;;;;;;20.23;11.48;;;21.90;78.90;;;;;;4949601;28;20237;-73
2021/06/02 08:39:56;;;;;;;17.52;11.73;;;21.90;78.90;;;;;;4931817;28;20215;-74
2021/06/02 08:42:23;;;;;;;19.15;12.00;;;22.00;79.00;;;;;;4950771;28;20578;-73
2021/06/02 08:44:51;;;;;;;15.60;11.07;;;22.00;78.80;;;;;;4947410;28;20660;-74
2021/06/02 08:47:17;;;;;;;16.40;11.20;;;22.10;78.80;;;;;;4944306;28;20245;-74
2021/06/02 08:49:44;;;;;;;20.77;11.70;;;22.10;78.60;;;;;;4952438;28;20261;-73
2021/06/02 08:52:13;;;;;;;18.30;9.98;;;22.20;78.40;;;;;;4947528;28;20754;-73
2021/06/02 08:54:39;;;;;;;24.42;10.00;;;22.20;77.80;;;;;;4951657;28;20221;-73
2021/06/02 08:57:09;;;;;;;17.48;8.90;;;22.30;77.60;;;;;;4938094;29;20221;-74
2021/06/02 08:59:36;;;;;;;18.10;9.48;;;22.30;76.80;;;;;;4952386;28;20218;-74
2021/06/02 09:02:03;;;;;;;45.08;10.10;;;22.40;76.80;;;;;;4949617;28;20634;-74
2021/06/02 09:04:30;;;;;;;14.73;9.65;;;22.40;76.90;;;;;;4951098;28;20222;-73
2021/06/02 09:06:58;;;;;;;19.45;9.70;;;22.50;77.20;;;;;;4947958;28;20210;-75
2021/06/02 09:09:26;;;;;;;14.77;9.63;;;22.50;77.30;;;;;;4948756;28;20237;-74
2021/06/02 09:11:52;;;;;;;14.50;9.27;;;22.60;76.90;;;;;;4949545;28;20258;-75
2021/06/02 09:14:24;;;;;;;17.60;9.75;;;22.70;76.70;;;;;;4947235;28;20218;-74
2021/06/02 09:16:52;;;;;;;13.70;8.88;;;22.70;76.60;;;;;;4949336;28;20586;-75
2021/06/02 09:19:32;;;;;;;15.98;9.25;;;22.80;76.60;;;;;;4948657;28;20222;-73
2021/06/02 09:21:59;;;;;;;16.65;9.30;;;22.90;76.90;;;;;;4948908;28;20206;-73
2021/06/02 09:24:45;;;;;;;18.88;9.27;;;22.90;76.10;;;;;;4946527;28;20219;-73
2021/06/02 09:27:12;;;;;;;11.93;7.80;;;23.00;76.50;;;;;;4945478;28;20229;-74
2021/06/02 09:29:48;;;;;;;17.50;8.20;;;23.10;75.90;;;;;;4948477;28;20671;-74
2021/06/02 09:32:17;;;;;;;15.43;8.07;;;23.10;75.60;;;;;;4946247;28;20662;-72
2021/06/02 09:34:43;;;;;;;15.25;6.75;;;23.20;75.10;;;;;;4950109;28;20233;-74
2021/06/02 09:37:10;;;;;;;10.18;6.30;;;23.30;74.50;;;;;;4949478;28;20206;-73
2021/06/02 09:39:39;;;;;;;15.77;6.20;;;23.30;73.40;;;;;;4950034;28;20202;-73
2021/06/02 09:42:19;;;;;;;10.07;6.22;;;23.40;72.70;;;;;;4946903;28;20214;-72
2021/06/02 09:45:01;;;;;;;11.93;6.78;;;23.40;73.20;;;;;;4946081;28;20643;-72
2021/06/02 09:47:41;;;;;;;10.40;5.03;;;23.50;73.50;;;;;;4946862;28;20287;-74
2021/06/02 09:50:08;;;;;;;11.73;5.70;;;23.60;72.30;;;;;;4948524;28;20989;-74
2021/06/02 09:52:41;;;;;;;8.80;6.32;;;23.60;71.30;;;;;;4949526;28;20654;-71
2021/06/02 09:55:19;;;;;;;12.63;5.90;;;23.70;70.60;;;;;;4948874;28;20683;-73
2021/06/02 09:57:48;;;;;;;10.20;5.65;;;23.80;70.00;;;;;;4948487;28;20214;-71
2021/06/02 10:00:15;;;;;;;9.88;5.03;;;23.80;69.30;;;;;;4949578;28;20209;-72
2021/06/02 10:02:42;;;;;;;7.57;5.00;;;23.90;69.10;;;;;;4947386;28;20293;-73
2021/06/02 10:05:10;;;;;;;7.28;4.65;;;24.00;67.60;;;;;;4952836;28;20562;-72
2021/06/02 10:07:47;;;;;;;10.95;5.10;;;24.10;66.70;;;;;;4950605;28;20226;-74
2021/06/02 10:10:17;;;;;;;5.93;4.50;;;24.10;67.10;;;;;;4951404;28;20214;-74
2021/06/02 10:12:59;;;;;;;8.73;4.47;;;24.20;66.10;;;;;;4947211;28;20230;-75
2021/06/02 10:15:31;;;;;;;9.55;4.75;;;24.40;65.00;;;;;;4943532;28;20229;-71
2021/06/02 10:17:59;;;;;;;8.90;5.00;;;24.40;64.50;;;;;;4933416;28;20206;-72
2021/06/02 10:20:26;;;;;;;8.40;4.70;;;24.40;65.20;;;;;;4949314;28;20289;-75
2021/06/02 10:22:55;;;;;;;7.10;5.20;;;24.50;64.70;;;;;;4948166;28;20206;-74
2021/06/02 10:25:23;;;;;;;10.50;5.28;;;24.50;63.90;;;;;;4950840;28;20214;-74
2021/06/02 10:27:52;;;;;;;9.25;4.70;;;24.60;63.60;;;;;;4949910;28;20222;-74
2021/06/02 10:30:22;;;;;;;7.82;5.15;;;24.60;64.00;;;;;;4946531;28;20211;-73
2021/06/02 10:32:49;;;;;;;8.43;4.88;;;24.70;64.10;;;;;;4929510;29;20211;-74
2021/06/02 10:35:16;;;;;;;8.23;4.70;;;24.70;63.50;;;;;;4949354;28;20221;-73
2021/06/02 10:37:44;;;;;;;9.55;5.00;;;24.80;62.60;;;;;;4947445;28;20229;-72
2021/06/02 10:40:14;;;;;;;7.95;4.47;;;24.80;61.80;;;;;;4948399;28;20203;-73
2021/06/02 10:42:48;;;;;;;8.93;4.75;;;24.90;61.30;;;;;;4949381;28;20257;-75
2021/06/02 10:45:20;;;;;;;9.77;4.63;;;25.00;61.30;;;;;;4929149;28;20343;-74
2021/06/02 10:47:56;;;;;;;8.82;4.70;;;25.10;61.40;;;;;;4948172;28;20218;-75
2021/06/02 10:50:32;;;;;;;9.48;5.72;;;25.20;61.50;;;;;;4933063;28;20202;-72
2021/06/02 10:53:00;;;;;;;6.88;4.53;;;25.30;60.90;;;;;;4950913;28;20659;-72
2021/06/02 10:55:42;;;;;;;10.18;5.30;;;25.30;60.90;;;;;;4946602;28;20438;-72
2021/06/02 10:58:25;;;;;;;8.52;4.90;;;25.80;57.60;;;;;;4949372;28;20489;-69
2021/06/02 11:01:09;;;;;;;8.43;5.10;;;26.20;57.50;;;;;;4943820;28;20450;-73
2021/06/02 11:03:36;;;;;;;7.85;5.25;;;26.40;56.20;;;;;;4949733;28;20977;-68
2021/06/02 11:06:42;;;;;;;7.40;4.88;;;26.60;55.00;;;;;;4948322;28;20437;-72
2021/06/02 11:09:22;;;;;;;8.52;5.90;;;26.80;56.10;;;;;;4944873;28;20906;-70
2021/06/02 11:11:48;;;;;;;9.48;4.95;;;26.90;54.00;;;;;;4948405;28;20905;-70
2021/06/02 11:14:27;;;;;;;8.57;5.47;;;27.00;54.00;;;;;;4950873;28;20434;-70
2021/06/02 11:17:08;;;;;;;11.43;5.78;;;27.10;53.00;;;;;;4949501;28;20440;-72
2021/06/02 11:19:38;;;;;;;10.48;5.93;;;27.20;52.90;;;;;;4951944;28;20464;-72
2021/06/02 11:22:07;;;;;;;9.20;5.05;;;27.40;52.60;;;;;;4948152;28;20495;-71
2021/06/02 11:24:40;;;;;;;9.23;5.28;;;27.50;51.70;;;;;;4946166;28;21014;-72
2021/06/02 11:27:33;;;;;;;9.32;5.45;;;27.60;52.00;;;;;;4947615;28;20437;-73
2021/06/02 11:30:31;;;;;;;9.82;5.40;;;27.80;50.60;;;;;;4951904;28;20783;-74
2021/06/02 11:33:10;;;;;;;8.43;4.20;;;27.80;50.90;;;;;;4953188;28;20425;-74
2021/06/02 11:36:08;;;;;;;9.80;4.40;;;28.00;49.10;;;;;;4947858;28;20439;-74
2021/06/02 11:38:36;;;;;;;9.02;4.05;;;28.10;47.90;;;;;;4952236;28;20444;-73
2021/06/02 11:41:03;;;;;;;8.60;4.63;;;28.20;49.90;;;;;;4948977;28;20496;-73
2021/06/02 11:43:29;;;;;;;9.43;5.13;;;28.30;51.50;;;;;;4952789;28;20438;-74
2021/06/02 11:45:59;;;;;;;8.80;4.63;;;28.40;51.20;;;;;;4948038;28;20922;-75
2021/06/02 11:48:33;;;;;;;8.43;4.53;;;28.50;44.60;;;;;;4950336;28;20861;-73
2021/06/02 11:51:10;;;;;;;10.57;5.88;;;28.60;45.70;;;;;;4949188;28;20502;-73
2021/06/02 11:53:39;;;;;;;11.05;6.57;;;28.70;48.30;;;;;;4947707;28;20457;-74
2021/06/02 11:56:05;;;;;;;12.15;5.80;;;28.80;50.40;;;;;;4949239;28;20985;-74
2021/06/02 11:58:32;;;;;;;16.17;7.40;;;28.90;49.60;;;;;;4951978;28;20434;-75
2021/06/02 12:00:58;;;;;;;10.35;6.10;;;29.00;49.70;;;;;;4947644;28;20461;-73
2021/06/02 12:03:25;;;;;;;13.07;6.60;;;29.10;50.10;;;;;;4951536;28;20434;-74
2021/06/02 12:05:53;;;;;;;11.10;5.50;;;29.20;49.50;;;;;;4947805;28;20453;-73
2021/06/02 12:08:20;;;;;;;9.95;6.00;;;29.30;50.20;;;;;;4949327;28;20993;-73
2021/06/02 12:10:49;;;;;;;11.38;6.15;;;29.40;49.30;;;;;;4928708;29;20456;-74
2021/06/02 12:13:16;;;;;;;11.43;5.83;;;29.60;49.20;;;;;;4950827;28;20437;-73
2021/06/02 12:15:45;;;;;;;11.35;6.60;;;29.70;49.30;;;;;;4929641;28;20508;-73
2021/06/02 12:18:12;;;;;;;11.73;5.80;;;29.80;48.00;;;;;;4951912;28;20887;-73
2021/06/02 12:20:39;;;;;;;9.98;6.20;;;29.90;47.80;;;;;;4950675;28;20488;-73
2021/06/02 12:23:07;;;;;;;12.80;5.73;;;30.00;47.70;;;;;;4950394;28;20925;-75
2021/06/02 12:25:35;;;;;;;14.57;5.70;;;30.10;47.40;;;;;;4948446;28;20450;-72
2021/06/02 12:28:04;;;;;;;11.60;5.50;;;30.30;46.50;;;;;;4949603;28;20454;-73
2021/06/02 12:30:34;;;;;;;8.80;5.30;;;30.40;46.40;;;;;;4932298;29;20441;-73
2021/06/02 12:33:02;;;;;;;8.47;5.17;;;30.50;46.90;;;;;;4951426;28;20506;-74
2021/06/02 12:35:37;;;;;;;10.38;5.35;;;30.60;46.20;;;;;;4931081;29;20433;-73
2021/06/02 12:38:12;;;;;;;10.77;5.18;;;30.80;45.80;;;;;;4949810;28;20433;-75
2021/06/02 12:40:41;;;;;;;10.88;5.50;;;31.00;44.50;;;;;;4932385;29;20440;-73
2021/06/02 12:43:16;;;;;;;8.55;5.10;;;31.20;44.20;;;;;;4952406;28;20471;-75
2021/06/02 12:45:43;;;;;;;8.02;5.22;;;31.30;43.20;;;;;;4929041;29;20818;-74
2021/06/02 12:48:11;;;;;;;9.55;5.03;;;31.40;43.50;;;;;;4948463;28;20453;-72
2021/06/02 12:50:46;;;;;;;12.25;5.40;;;31.60;42.60;;;;;;4951905;28;20205;-73
2021/06/02 12:53:16;;;;;;;7.70;4.57;;;31.40;43.10;;;;;;4948841;28;20663;-73
2021/06/02 12:55:44;;;;;;;11.65;5.38;;;31.40;43.80;;;;;;4945857;28;20213;-74
2021/06/02 12:58:13;;;;;;;10.32;5.72;;;31.40;44.00;;;;;;4949738;28;20269;-73
2021/06/02 13:00:41;;;;;;;7.32;4.82;;;31.40;43.80;;;;;;4949021;28;20671;-73
2021/06/02 13:03:08;;;;;;;11.93;5.63;;;31.50;43.50;;;;;;4945960;28;20210;-74
2021/06/02 13:05:35;;;;;;;11.35;5.40;;;31.60;43.60;;;;;;4948770;28;20669;-74
2021/06/02 13:08:06;;;;;;;12.95;5.13;;;31.60;43.40;;;;;;4950195;28;20671;-74
2021/06/02 13:10:35;;;;;;;13.52;5.07;;;31.70;43.00;;;;;;4931899;28;20202;-74
2021/06/02 13:13:04;;;;;;;8.45;4.90;;;31.80;42.70;;;;;;4948473;28;20213;-72
2021/06/02 13:15:32;;;;;;;7.43;5.10;;;31.90;42.60;;;;;;4951043;28;20234;-73